createdAt,value
2022-09-20T00:00:06.278Z,2.40
2022-09-20T00:00:16.279Z,2.70
2022-09-20T00:00:26.379Z,1.80
2022-09-20T00:00:36.154Z,1.60
2022-09-20T00:00:46.195Z,0.90
2022-09-20T00:00:56.388Z,0.90
2022-09-20T00:01:06.514Z,1.70
2022-09-20T00:01:18.035Z,2.30
2022-09-20T00:01:26.436Z,2.30
2022-09-20T00:01:36.463Z,2.20
2022-09-20T00:01:46.333Z,1.70
2022-09-20T00:01:56.358Z,2.40
2022-09-20T00:02:06.378Z,2.20
2022-09-20T00:02:16.235Z,2.30
2022-09-20T00:02:26.228Z,1.50
2022-09-20T00:02:36.215Z,1.00
2022-09-20T00:02:46.655Z,0.70
2022-09-20T00:02:56.300Z,1.00
2022-09-20T00:03:06.247Z,1.00
2022-09-20T00:03:16.136Z,1.40
2022-09-20T00:03:26.178Z,1.50
2022-09-20T00:03:36.219Z,1.60
2022-09-20T00:03:46.402Z,1.00
2022-09-20T00:03:56.267Z,1.30
2022-09-20T00:04:06.530Z,1.50
2022-09-20T00:04:16.187Z,1.60
2022-09-20T00:04:26.393Z,1.30
2022-09-20T00:04:36.222Z,1.10
2022-09-20T00:04:46.184Z,1.00
2022-09-20T00:04:56.261Z,1.10
2022-09-20T00:05:06.486Z,1.50
2022-09-20T00:05:16.232Z,1.50
2022-09-20T00:05:26.455Z,1.20
2022-09-20T00:05:36.153Z,1.20
2022-09-20T00:05:46.161Z,2.20
2022-09-20T00:05:56.245Z,2.20
2022-09-20T00:06:06.358Z,1.80
2022-09-20T00:06:16.172Z,1.20
2022-09-20T00:06:26.419Z,1.00
2022-09-20T00:06:36.226Z,1.30
2022-09-20T00:06:46.394Z,1.30
2022-09-20T00:06:56.257Z,2.00
2022-09-20T00:07:06.261Z,2.20
2022-09-20T00:07:16.319Z,2.20
2022-09-20T00:07:26.359Z,1.60
2022-09-20T00:07:36.156Z,1.30
2022-09-20T00:07:46.270Z,1.00
2022-09-20T00:07:56.203Z,1.20
2022-09-20T00:08:06.416Z,1.20
2022-09-20T00:08:16.188Z,1.50
2022-09-20T00:08:26.423Z,1.80
2022-09-20T00:08:36.473Z,1.40
2022-09-20T00:08:46.203Z,1.90
2022-09-20T00:08:56.329Z,1.80
2022-09-20T00:09:06.193Z,2.20
2022-09-20T00:09:16.226Z,1.30
2022-09-20T00:09:26.273Z,1.90
2022-09-20T00:09:36.255Z,1.40
2022-09-20T00:09:46.202Z,1.50
2022-09-20T00:09:56.356Z,0.70
2022-09-20T00:10:06.448Z,1.10
2022-09-20T00:10:16.199Z,0.80
2022-09-20T00:10:28.827Z,0.90
2022-09-20T00:10:36.396Z,0.70
2022-09-20T00:10:46.386Z,1.10
2022-09-20T00:10:56.398Z,1.10
2022-09-20T00:11:06.416Z,1.30
2022-09-20T00:11:16.393Z,1.80
2022-09-20T00:11:27.388Z,2.10
2022-09-20T00:11:36.357Z,2.00
2022-09-20T00:11:46.241Z,1.30
2022-09-20T00:11:56.371Z,1.10
2022-09-20T00:12:06.188Z,1.60
2022-09-20T00:12:18.649Z,1.60
2022-09-20T00:12:26.233Z,2.00
2022-09-20T00:12:38.455Z,1.30
2022-09-20T00:12:46.450Z,1.40
2022-09-20T00:12:56.191Z,0.80
2022-09-20T00:13:06.158Z,1.10
2022-09-20T00:13:16.329Z,0.90
2022-09-20T00:13:26.189Z,1.20
2022-09-20T00:13:36.186Z,1.30
2022-09-20T00:13:46.357Z,1.40
2022-09-20T00:13:56.586Z,0.90
2022-09-20T00:14:06.636Z,0.70
2022-09-20T00:14:16.438Z,1.20
2022-09-20T00:14:26.375Z,1.80
2022-09-20T00:14:36.412Z,1.80
2022-09-20T00:14:46.276Z,1.20
2022-09-20T00:14:56.260Z,1.00
2022-09-20T00:15:06.331Z,1.30
2022-09-20T00:15:16.234Z,1.70
2022-09-20T00:15:28.452Z,1.80
2022-09-20T00:15:36.387Z,2.10
2022-09-20T00:15:46.429Z,1.50
2022-09-20T00:15:56.275Z,1.30
2022-09-20T00:16:06.459Z,1.90
2022-09-20T00:16:16.356Z,2.00
2022-09-20T00:16:26.374Z,2.00
2022-09-20T00:16:37.743Z,1.30
2022-09-20T00:16:46.560Z,1.20
2022-09-20T00:16:56.399Z,1.00
2022-09-20T00:17:06.381Z,1.20
2022-09-20T00:17:16.173Z,1.20
2022-09-20T00:17:26.247Z,1.60
2022-09-20T00:17:36.129Z,1.70
2022-09-20T00:17:46.222Z,2.50
2022-09-20T00:17:59.370Z,2.30
2022-09-20T00:18:06.414Z,2.20
2022-09-20T00:18:16.294Z,1.30
2022-09-20T00:18:28.694Z,1.20
2022-09-20T00:18:36.383Z,1.30
2022-09-20T00:18:46.237Z,1.60
2022-09-20T00:18:56.420Z,1.60
2022-09-20T00:19:06.824Z,1.20
2022-09-20T00:19:16.216Z,1.10
2022-09-20T00:19:26.401Z,1.30
2022-09-20T00:19:36.276Z,1.50
2022-09-20T00:19:46.238Z,1.40
2022-09-20T00:19:56.268Z,1.90
2022-09-20T00:20:06.377Z,1.80
2022-09-20T00:20:16.205Z,1.50
2022-09-20T00:20:26.348Z,1.10
2022-09-20T00:20:36.242Z,1.00
2022-09-20T00:20:46.256Z,1.20
2022-09-20T00:20:56.221Z,1.80
2022-09-20T00:21:06.226Z,1.90
2022-09-20T00:21:16.378Z,2.10
2022-09-20T00:21:26.372Z,1.20
2022-09-20T00:21:36.169Z,1.90
2022-09-20T00:21:46.203Z,2.40
2022-09-20T00:21:56.369Z,2.40
2022-09-20T00:22:06.162Z,1.40
2022-09-20T00:22:16.135Z,0.70
2022-09-20T00:22:26.238Z,0.90
2022-09-20T00:22:36.306Z,1.40
2022-09-20T00:22:46.228Z,1.30
2022-09-20T00:22:56.335Z,1.20
2022-09-20T00:23:06.191Z,0.90
2022-09-20T00:23:16.237Z,1.10
2022-09-20T00:23:26.372Z,1.50
2022-09-20T00:23:36.167Z,1.90
2022-09-20T00:23:46.276Z,1.80
2022-09-20T00:23:56.289Z,1.70
2022-09-20T00:24:06.398Z,1.30
2022-09-20T00:24:16.180Z,1.30
2022-09-20T00:24:26.245Z,1.20
2022-09-20T00:24:36.172Z,1.20
2022-09-20T00:24:49.010Z,1.00
2022-09-20T00:24:56.341Z,1.20
2022-09-20T00:25:06.153Z,0.80
2022-09-20T00:25:16.139Z,0.80
2022-09-20T00:25:26.318Z,0.30
2022-09-20T00:25:36.210Z,0.50
2022-09-20T00:25:46.131Z,1.10
2022-09-20T00:25:56.383Z,1.80
2022-09-20T00:26:06.280Z,2.20
2022-09-20T00:26:16.224Z,1.90
2022-09-20T00:26:26.390Z,2.10
2022-09-20T00:26:36.246Z,1.70
2022-09-20T00:26:46.397Z,2.20
2022-09-20T00:26:56.381Z,1.30
2022-09-20T00:27:06.216Z,1.30
2022-09-20T00:27:16.165Z,1.30
2022-09-20T00:27:26.266Z,1.50
2022-09-20T00:27:36.263Z,1.40
2022-09-20T00:27:46.360Z,1.20
2022-09-20T00:27:56.393Z,2.20
2022-09-20T00:28:06.259Z,2.30
2022-09-20T00:28:16.333Z,2.10
2022-09-20T00:28:26.157Z,1.30
2022-09-20T00:28:36.201Z,1.30
2022-09-20T00:28:46.215Z,1.50
2022-09-20T00:28:56.307Z,1.50
2022-09-20T00:29:06.347Z,1.40
2022-09-20T00:29:16.163Z,1.50
2022-09-20T00:29:26.184Z,1.60
2022-09-20T00:29:36.240Z,1.60
2022-09-20T00:29:46.394Z,1.40
2022-09-20T00:29:56.164Z,1.60
2022-09-20T00:30:06.200Z,1.70
2022-09-20T00:30:16.349Z,2.40
2022-09-20T00:30:26.156Z,3.00
2022-09-20T00:30:36.431Z,2.90
2022-09-20T00:30:46.232Z,2.60
2022-09-20T00:31:00.248Z,2.00
2022-09-20T00:31:06.140Z,2.30
2022-09-20T00:31:16.355Z,1.70
2022-09-20T00:31:26.386Z,1.00
2022-09-20T00:31:36.189Z,1.30
2022-09-20T00:31:46.218Z,1.40
2022-09-20T00:31:56.508Z,2.30
2022-09-20T00:32:06.226Z,1.90
2022-09-20T00:32:16.489Z,2.90
2022-09-20T00:32:26.221Z,2.20
2022-09-20T00:32:36.118Z,3.20
2022-09-20T00:32:46.371Z,2.60
2022-09-20T00:32:56.268Z,2.90
2022-09-20T00:33:06.325Z,2.00
2022-09-20T00:33:16.169Z,1.50
2022-09-20T00:33:26.244Z,1.30
2022-09-20T00:33:36.166Z,1.30
2022-09-20T00:33:46.209Z,1.40
2022-09-20T00:33:56.408Z,1.90
2022-09-20T00:34:06.385Z,2.10
2022-09-20T00:34:16.225Z,2.20
2022-09-20T00:34:26.180Z,1.80
2022-09-20T00:34:36.233Z,1.70
2022-09-20T00:34:46.399Z,1.80
2022-09-20T00:34:56.234Z,2.80
2022-09-20T00:35:06.315Z,2.60
2022-09-20T00:35:16.152Z,2.80
2022-09-20T00:35:26.272Z,1.80
2022-09-20T00:35:36.409Z,1.80
2022-09-20T00:35:46.219Z,1.30
2022-09-20T00:35:56.346Z,1.60
2022-09-20T00:36:06.178Z,1.60
2022-09-20T00:36:16.341Z,1.50
2022-09-20T00:36:26.375Z,0.80
2022-09-20T00:36:36.252Z,1.00
2022-09-20T00:36:46.371Z,1.90
2022-09-20T00:36:56.129Z,2.70
2022-09-20T00:37:06.179Z,2.20
2022-09-20T00:37:16.191Z,1.80
2022-09-20T00:37:26.215Z,1.20
2022-09-20T00:37:40.712Z,1.30
2022-09-20T00:37:46.260Z,1.10
2022-09-20T00:37:56.170Z,0.80
2022-09-20T00:38:06.264Z,2.00
2022-09-20T00:38:16.189Z,2.80
2022-09-20T00:38:26.245Z,3.50
2022-09-20T00:38:36.358Z,2.90
2022-09-20T00:38:46.191Z,2.00
2022-09-20T00:38:56.372Z,1.80
2022-09-20T00:39:06.226Z,1.10
2022-09-20T00:39:16.387Z,2.10
2022-09-20T00:39:26.363Z,2.30
2022-09-20T00:39:36.300Z,2.40
2022-09-20T00:39:46.166Z,1.90
2022-09-20T00:39:56.335Z,1.20
2022-09-20T00:40:06.465Z,1.90
2022-09-20T00:40:16.398Z,1.60
2022-09-20T00:40:26.454Z,1.80
2022-09-20T00:40:36.408Z,1.50
2022-09-20T00:40:46.419Z,1.50
2022-09-20T00:40:56.247Z,1.30
2022-09-20T00:41:06.200Z,0.80
2022-09-20T00:41:16.326Z,0.60
2022-09-20T00:41:26.209Z,0.70
2022-09-20T00:41:36.197Z,0.70
2022-09-20T00:41:46.211Z,1.00
2022-09-20T00:41:56.262Z,1.30
2022-09-20T00:42:06.335Z,2.30
2022-09-20T00:42:16.309Z,2.30
2022-09-20T00:42:26.212Z,2.00
2022-09-20T00:42:36.172Z,1.10
2022-09-20T00:42:46.345Z,1.20
2022-09-20T00:42:56.190Z,1.20
2022-09-20T00:43:06.441Z,1.10
2022-09-20T00:43:16.382Z,0.70
2022-09-20T00:43:26.156Z,1.50
2022-09-20T00:43:36.136Z,2.40
2022-09-20T00:43:46.361Z,2.90
2022-09-20T00:43:56.218Z,2.50
2022-09-20T00:44:06.468Z,2.30
2022-09-20T00:44:16.341Z,2.10
2022-09-20T00:44:26.413Z,1.80
2022-09-20T00:44:36.228Z,1.30
2022-09-20T00:44:46.163Z,2.10
2022-09-20T00:44:56.232Z,1.80
2022-09-20T00:45:06.369Z,1.60
2022-09-20T00:45:16.227Z,0.60
2022-09-20T00:45:26.257Z,1.00
2022-09-20T00:45:39.344Z,2.00
2022-09-20T00:45:46.416Z,2.00
2022-09-20T00:45:56.470Z,2.30
2022-09-20T00:46:06.304Z,1.70
2022-09-20T00:46:16.349Z,2.10
2022-09-20T00:46:29.696Z,2.00
2022-09-20T00:46:36.450Z,1.80
2022-09-20T00:46:46.177Z,1.10
2022-09-20T00:46:56.459Z,0.80
2022-09-20T00:47:06.185Z,1.30
2022-09-20T00:47:16.366Z,1.60
2022-09-20T00:47:26.638Z,1.40
2022-09-20T00:47:36.138Z,1.10
2022-09-20T00:47:46.327Z,1.40
2022-09-20T00:47:56.120Z,1.40
2022-09-20T00:48:06.134Z,2.40
2022-09-20T00:48:16.429Z,2.10
2022-09-20T00:48:26.295Z,2.40
2022-09-20T00:48:36.232Z,1.40
2022-09-20T00:48:46.184Z,1.50
2022-09-20T00:48:56.417Z,1.00
2022-09-20T00:49:06.467Z,1.70
2022-09-20T00:49:16.129Z,1.40
2022-09-20T00:49:27.847Z,2.30
2022-09-20T00:49:36.351Z,2.70
2022-09-20T00:49:46.436Z,2.90
2022-09-20T00:49:56.400Z,2.80
2022-09-20T00:50:06.218Z,1.80
2022-09-20T00:50:16.196Z,1.60
2022-09-20T00:50:26.152Z,0.90
2022-09-20T00:50:36.194Z,1.00
2022-09-20T00:50:46.171Z,1.20
2022-09-20T00:50:56.170Z,1.30
2022-09-20T00:51:06.409Z,1.60
2022-09-20T00:51:16.429Z,1.40
2022-09-20T00:51:26.154Z,1.80
2022-09-20T00:51:36.310Z,1.40
2022-09-20T00:51:46.283Z,2.10
2022-09-20T00:51:56.437Z,2.10
2022-09-20T00:52:06.324Z,2.20
2022-09-20T00:52:16.306Z,2.20
2022-09-20T00:52:26.326Z,2.20
2022-09-20T00:52:36.216Z,2.90
2022-09-20T00:52:46.132Z,2.90
2022-09-20T00:52:56.384Z,2.80
2022-09-20T00:53:06.252Z,2.00
2022-09-20T00:53:16.153Z,2.10
2022-09-20T00:53:26.457Z,2.30
2022-09-20T00:53:36.360Z,2.40
2022-09-20T00:53:46.378Z,1.30
2022-09-20T00:53:56.282Z,1.40
2022-09-20T00:54:06.408Z,2.00
2022-09-20T00:54:20.109Z,2.00
2022-09-20T00:54:26.314Z,1.60
2022-09-20T00:54:36.185Z,1.70
2022-09-20T00:54:46.298Z,1.60
2022-09-20T00:54:56.240Z,2.50
2022-09-20T00:55:06.390Z,2.00
2022-09-20T00:55:16.411Z,2.30
2022-09-20T00:55:26.447Z,1.30
2022-09-20T00:55:36.281Z,1.70
2022-09-20T00:55:46.279Z,2.50
2022-09-20T00:55:56.202Z,2.50
2022-09-20T00:56:06.374Z,2.60
2022-09-20T00:56:16.251Z,1.60
2022-09-20T00:56:26.428Z,2.00
2022-09-20T00:56:36.131Z,1.70
2022-09-20T00:56:46.170Z,2.00
2022-09-20T00:56:58.065Z,1.50
2022-09-20T00:57:06.278Z,1.30
2022-09-20T00:57:16.259Z,0.80
2022-09-20T00:57:26.312Z,0.90
2022-09-20T00:57:36.345Z,0.80
2022-09-20T00:57:46.413Z,1.90
2022-09-20T00:57:56.359Z,1.90
2022-09-20T00:58:06.127Z,2.20
2022-09-20T00:58:16.211Z,1.60
2022-09-20T00:58:26.319Z,2.50
2022-09-20T00:58:36.210Z,3.00
2022-09-20T00:58:46.407Z,3.40
2022-09-20T00:58:56.263Z,2.50
2022-09-20T00:59:06.423Z,1.60
2022-09-20T00:59:16.211Z,1.00
2022-09-20T00:59:26.306Z,1.10
2022-09-20T00:59:40.071Z,2.50
2022-09-20T00:59:46.187Z,2.00
2022-09-20T00:59:56.462Z,2.90
2022-09-20T01:00:06.410Z,2.10
2022-09-20T01:00:16.337Z,2.30
2022-09-20T01:00:26.196Z,1.50
2022-09-20T01:00:36.367Z,1.80
2022-09-20T01:00:46.446Z,1.90
2022-09-20T01:00:56.401Z,2.10
2022-09-20T01:01:06.190Z,1.90
2022-09-20T01:01:16.208Z,1.70
2022-09-20T01:01:26.599Z,2.00
2022-09-20T01:01:36.370Z,1.80
2022-09-20T01:01:46.381Z,1.10
2022-09-20T01:01:56.189Z,0.60
2022-09-20T01:02:06.316Z,1.30
2022-09-20T01:02:16.455Z,1.70
2022-09-20T01:02:26.270Z,2.20
2022-09-20T01:02:36.282Z,2.50
2022-09-20T01:02:46.230Z,3.50
2022-09-20T01:02:56.336Z,3.10
2022-09-20T01:03:06.122Z,2.40
2022-09-20T01:03:16.164Z,1.70
2022-09-20T01:03:26.353Z,2.00
2022-09-20T01:03:36.148Z,1.90
2022-09-20T01:03:46.372Z,1.80
2022-09-20T01:03:56.153Z,1.60
2022-09-20T01:04:06.403Z,2.50
2022-09-20T01:04:16.385Z,1.80
2022-09-20T01:04:26.263Z,1.60
2022-09-20T01:04:36.260Z,1.20
2022-09-20T01:04:46.154Z,1.50
2022-09-20T01:04:56.253Z,1.30
2022-09-20T01:05:06.201Z,1.40
2022-09-20T01:05:16.253Z,2.50
2022-09-20T01:05:26.293Z,2.80
2022-09-20T01:05:36.360Z,2.60
2022-09-20T01:05:48.179Z,1.50
2022-09-20T01:05:56.321Z,1.70
2022-09-20T01:06:06.266Z,1.40
2022-09-20T01:06:16.184Z,1.10
2022-09-20T01:06:26.391Z,1.20
2022-09-20T01:06:36.336Z,1.40
2022-09-20T01:06:46.293Z,2.30
2022-09-20T01:06:56.346Z,3.00
2022-09-20T01:07:06.210Z,3.40
2022-09-20T01:07:16.222Z,2.30
2022-09-20T01:07:26.356Z,1.60
2022-09-20T01:07:36.277Z,1.70
2022-09-20T01:07:46.360Z,2.00
2022-09-20T01:07:56.324Z,2.40
2022-09-20T01:08:06.223Z,1.50
2022-09-20T01:08:16.279Z,1.70
2022-09-20T01:08:26.391Z,1.30
2022-09-20T01:08:36.277Z,1.70
2022-09-20T01:08:46.120Z,1.20
2022-09-20T01:08:56.347Z,1.20
2022-09-20T01:09:06.249Z,1.60
2022-09-20T01:09:16.273Z,1.80
2022-09-20T01:09:26.353Z,2.80
2022-09-20T01:09:36.142Z,2.80
2022-09-20T01:09:46.219Z,3.00
2022-09-20T01:09:58.362Z,2.20
2022-09-20T01:10:06.153Z,1.90
2022-09-20T01:10:16.235Z,2.60
2022-09-20T01:10:29.934Z,1.90
2022-09-20T01:10:36.185Z,2.00
2022-09-20T01:10:46.196Z,2.20
2022-09-20T01:10:56.142Z,2.50
2022-09-20T01:11:06.240Z,2.60
2022-09-20T01:11:16.275Z,1.90
2022-09-20T01:11:26.413Z,1.90
2022-09-20T01:11:36.159Z,2.00
2022-09-20T01:11:46.325Z,1.30
2022-09-20T01:11:56.163Z,1.10
2022-09-20T01:12:06.144Z,0.70
2022-09-20T01:12:16.331Z,1.50
2022-09-20T01:12:26.175Z,1.20
2022-09-20T01:12:36.340Z,1.10
2022-09-20T01:12:46.291Z,0.70
2022-09-20T01:12:56.465Z,0.80
2022-09-20T01:13:06.252Z,1.70
2022-09-20T01:13:16.129Z,1.70
2022-09-20T01:13:26.266Z,1.90
2022-09-20T01:13:36.264Z,1.00
2022-09-20T01:13:51.146Z,1.50
2022-09-20T01:13:56.237Z,1.70
2022-09-20T01:14:06.303Z,2.30
2022-09-20T01:14:16.333Z,2.20
2022-09-20T01:14:26.339Z,2.00
2022-09-20T01:14:36.207Z,1.70
2022-09-20T01:14:46.413Z,1.80
2022-09-20T01:14:56.387Z,1.60
2022-09-20T01:15:06.356Z,1.50
2022-09-20T01:15:16.406Z,1.10
2022-09-20T01:15:26.441Z,1.30
2022-09-20T01:15:36.357Z,1.30
2022-09-20T01:15:46.517Z,1.60
2022-09-20T01:15:56.348Z,1.80
2022-09-20T01:16:06.284Z,1.90
2022-09-20T01:16:16.348Z,2.20
2022-09-20T01:16:26.355Z,2.00
2022-09-20T01:16:36.475Z,2.30
2022-09-20T01:16:46.460Z,2.90
2022-09-20T01:16:56.260Z,2.70
2022-09-20T01:17:06.304Z,2.20
2022-09-20T01:17:16.287Z,1.10
2022-09-20T01:17:26.148Z,1.20
2022-09-20T01:17:36.168Z,2.10
2022-09-20T01:17:50.148Z,1.90
2022-09-20T01:17:56.196Z,2.30
2022-09-20T01:18:06.387Z,1.30
2022-09-20T01:18:16.305Z,1.20
2022-09-20T01:18:26.169Z,1.10
2022-09-20T01:18:36.248Z,0.90
2022-09-20T01:18:46.303Z,1.20
2022-09-20T01:18:56.414Z,0.90
2022-09-20T01:19:06.425Z,1.60
2022-09-20T01:19:18.273Z,1.40
2022-09-20T01:19:26.151Z,1.90
2022-09-20T01:19:36.409Z,1.30
2022-09-20T01:19:46.429Z,1.50
2022-09-20T01:19:56.270Z,1.60
2022-09-20T01:20:06.356Z,1.70
2022-09-20T01:20:16.154Z,1.70
2022-09-20T01:20:26.216Z,1.50
2022-09-20T01:20:36.298Z,2.00
2022-09-20T01:20:46.137Z,2.10
2022-09-20T01:20:57.501Z,1.90
2022-09-20T01:21:06.334Z,2.20
2022-09-20T01:21:16.292Z,2.90
2022-09-20T01:21:26.126Z,3.00
2022-09-20T01:21:36.266Z,2.80
2022-09-20T01:21:46.405Z,2.50
2022-09-20T01:21:56.253Z,2.20
2022-09-20T01:22:06.284Z,2.30
2022-09-20T01:22:16.291Z,3.10
2022-09-20T01:22:26.343Z,3.30
2022-09-20T01:22:36.177Z,3.10
2022-09-20T01:22:46.169Z,1.60
2022-09-20T01:22:59.065Z,1.20
2022-09-20T01:23:06.255Z,1.10
2022-09-20T01:23:16.210Z,1.80
2022-09-20T01:23:26.396Z,1.60
2022-09-20T01:23:36.170Z,1.50
2022-09-20T01:23:46.368Z,0.70
2022-09-20T01:23:56.159Z,0.60
2022-09-20T01:24:07.582Z,0.80
2022-09-20T01:24:16.274Z,1.10
2022-09-20T01:24:26.306Z,1.60
2022-09-20T01:24:36.191Z,1.60
2022-09-20T01:24:46.234Z,1.30
2022-09-20T01:24:56.314Z,1.00
2022-09-20T01:25:06.262Z,1.20
2022-09-20T01:25:16.130Z,1.60
2022-09-20T01:25:26.446Z,1.50
2022-09-20T01:25:36.121Z,1.60
2022-09-20T01:25:46.297Z,1.20
2022-09-20T01:25:56.355Z,1.80
2022-09-20T01:26:06.179Z,1.60
2022-09-20T01:26:16.147Z,1.80
2022-09-20T01:26:26.397Z,1.20
2022-09-20T01:26:36.173Z,0.90
2022-09-20T01:26:46.188Z,0.90
2022-09-20T01:26:56.296Z,1.10
2022-09-20T01:27:06.315Z,1.40
2022-09-20T01:27:16.409Z,1.00
2022-09-20T01:27:26.338Z,0.90
2022-09-20T01:27:36.145Z,0.80
2022-09-20T01:27:46.158Z,1.80
2022-09-20T01:27:56.231Z,1.70
2022-09-20T01:28:06.296Z,1.60
2022-09-20T01:28:16.391Z,2.00
2022-09-20T01:28:26.350Z,3.20
2022-09-20T01:28:36.184Z,3.30
2022-09-20T01:28:46.393Z,2.00
2022-09-20T01:28:56.267Z,1.20
2022-09-20T01:29:06.268Z,1.50
2022-09-20T01:29:16.286Z,2.50
2022-09-20T01:29:26.320Z,2.80
2022-09-20T01:29:36.288Z,2.40
2022-09-20T01:29:46.196Z,2.10
2022-09-20T01:29:56.263Z,1.70
2022-09-20T01:30:06.149Z,2.40
2022-09-20T01:30:16.240Z,1.50
2022-09-20T01:30:26.231Z,1.70
2022-09-20T01:30:36.303Z,1.00
2022-09-20T01:30:46.335Z,1.60
2022-09-20T01:30:56.299Z,1.30
2022-09-20T01:31:06.188Z,1.90
2022-09-20T01:31:16.280Z,1.80
2022-09-20T01:31:26.227Z,2.30
2022-09-20T01:31:36.483Z,2.50
2022-09-20T01:31:46.255Z,2.80
2022-09-20T01:31:56.446Z,2.70
2022-09-20T01:32:06.441Z,2.30
2022-09-20T01:32:16.137Z,1.80
2022-09-20T01:32:26.385Z,1.20
2022-09-20T01:32:36.141Z,1.20
2022-09-20T01:32:46.158Z,1.50
2022-09-20T01:32:57.375Z,1.60
2022-09-20T01:33:06.377Z,1.70
2022-09-20T01:33:16.191Z,1.10
2022-09-20T01:33:26.379Z,1.40
2022-09-20T01:33:36.409Z,1.40
2022-09-20T01:33:46.276Z,2.10
2022-09-20T01:33:56.315Z,1.90
2022-09-20T01:34:06.450Z,1.90
2022-09-20T01:34:16.200Z,1.20
2022-09-20T01:34:26.351Z,1.40
2022-09-20T01:34:36.296Z,2.10
2022-09-20T01:34:46.344Z,2.50
2022-09-20T01:34:56.378Z,2.90
2022-09-20T01:35:11.223Z,2.40
2022-09-20T01:35:16.369Z,2.20
2022-09-20T01:35:26.279Z,2.60
2022-09-20T01:35:36.303Z,2.70
2022-09-20T01:35:46.320Z,2.70
2022-09-20T01:35:56.950Z,1.60
2022-09-20T01:36:06.352Z,1.40
2022-09-20T01:36:16.160Z,1.30
2022-09-20T01:36:26.343Z,1.40
2022-09-20T01:36:36.208Z,2.10
2022-09-20T01:36:46.165Z,1.90
2022-09-20T01:36:56.668Z,1.60
2022-09-20T01:37:06.339Z,0.90
2022-09-20T01:37:16.174Z,1.10
2022-09-20T01:37:26.298Z,1.00
2022-09-20T01:37:36.351Z,1.00
2022-09-20T01:37:46.347Z,1.50
2022-09-20T01:37:56.274Z,1.90
2022-09-20T01:38:06.358Z,2.10
2022-09-20T01:38:16.292Z,2.70
2022-09-20T01:38:26.376Z,2.30
2022-09-20T01:38:36.398Z,2.10
2022-09-20T01:38:46.392Z,1.30
2022-09-20T01:38:56.342Z,1.00
2022-09-20T01:39:06.251Z,1.20
2022-09-20T01:39:16.143Z,1.20
2022-09-20T01:39:26.214Z,1.50
2022-09-20T01:39:36.312Z,1.60
2022-09-20T01:39:46.203Z,1.60
2022-09-20T01:39:56.249Z,1.50
2022-09-20T01:40:06.244Z,1.60
2022-09-20T01:40:16.455Z,1.60
2022-09-20T01:40:26.327Z,1.40
2022-09-20T01:40:36.405Z,0.90
2022-09-20T01:40:46.241Z,1.70
2022-09-20T01:40:56.351Z,1.50
2022-09-20T01:41:06.181Z,1.70
2022-09-20T01:41:16.170Z,1.30
2022-09-20T01:41:26.162Z,1.50
2022-09-20T01:41:36.314Z,1.90
2022-09-20T01:41:46.339Z,1.70
2022-09-20T01:41:56.290Z,1.90
2022-09-20T01:42:06.282Z,2.20
2022-09-20T01:42:16.253Z,2.20
2022-09-20T01:42:26.403Z,2.20
2022-09-20T01:42:36.269Z,1.40
2022-09-20T01:42:46.214Z,1.30
2022-09-20T01:42:56.315Z,1.50
2022-09-20T01:43:06.381Z,1.90
2022-09-20T01:43:16.212Z,2.00
2022-09-20T01:43:26.224Z,2.80
2022-09-20T01:43:36.199Z,3.20
2022-09-20T01:43:46.383Z,3.50
2022-09-20T01:43:56.281Z,2.20
2022-09-20T01:44:06.178Z,1.50
2022-09-20T01:44:16.247Z,1.10
2022-09-20T01:44:26.198Z,1.20
2022-09-20T01:44:36.154Z,1.70
2022-09-20T01:44:46.222Z,1.70
2022-09-20T01:44:56.432Z,2.10
2022-09-20T01:45:06.383Z,1.50
2022-09-20T01:45:16.442Z,2.20
2022-09-20T01:45:26.350Z,2.40
2022-09-20T01:45:36.211Z,2.40
2022-09-20T01:45:46.338Z,1.30
2022-09-20T01:45:56.177Z,1.30
2022-09-20T01:46:06.375Z,1.80
2022-09-20T01:46:16.380Z,1.90
2022-09-20T01:46:30.727Z,1.70
2022-09-20T01:46:36.342Z,2.00
2022-09-20T01:46:46.132Z,2.40
2022-09-20T01:46:56.181Z,2.90
2022-09-20T01:47:06.197Z,2.00
2022-09-20T01:47:16.301Z,1.90
2022-09-20T01:47:26.286Z,0.80
2022-09-20T01:47:36.354Z,1.10
2022-09-20T01:47:46.200Z,1.00
2022-09-20T01:47:56.186Z,1.00
2022-09-20T01:48:06.316Z,1.10
2022-09-20T01:48:16.670Z,1.50
2022-09-20T01:48:26.134Z,1.80
2022-09-20T01:48:36.306Z,1.80
2022-09-20T01:48:46.201Z,1.10
2022-09-20T01:48:56.217Z,1.20
2022-09-20T01:49:06.347Z,1.50
2022-09-20T01:49:16.342Z,1.80
2022-09-20T01:49:26.432Z,1.50
2022-09-20T01:49:36.284Z,1.60
2022-09-20T01:49:46.218Z,1.60
2022-09-20T01:49:56.170Z,1.60
2022-09-20T01:50:06.248Z,1.20
2022-09-20T01:50:16.371Z,1.30
2022-09-20T01:50:26.304Z,1.70
2022-09-20T01:50:36.390Z,1.90
2022-09-20T01:50:46.321Z,2.10
2022-09-20T01:50:56.282Z,1.80
2022-09-20T01:51:06.338Z,2.50
2022-09-20T01:51:16.348Z,2.20
2022-09-20T01:51:26.155Z,2.50
2022-09-20T01:51:36.655Z,1.60
2022-09-20T01:51:46.260Z,2.10
2022-09-20T01:51:56.287Z,2.00
2022-09-20T01:52:06.187Z,2.10
2022-09-20T01:52:16.274Z,1.50
2022-09-20T01:52:26.235Z,1.80
2022-09-20T01:52:36.339Z,2.20
2022-09-20T01:52:46.247Z,3.10
2022-09-20T01:52:59.010Z,2.40
2022-09-20T01:53:06.228Z,1.70
2022-09-20T01:53:16.205Z,1.50
2022-09-20T01:53:26.264Z,1.40
2022-09-20T01:53:36.183Z,1.50
2022-09-20T01:53:46.303Z,1.00
2022-09-20T01:53:56.270Z,1.10
2022-09-20T01:54:06.265Z,1.20
2022-09-20T01:54:16.285Z,2.90
2022-09-20T01:54:26.284Z,2.80
2022-09-20T01:54:36.210Z,3.40
2022-09-20T01:54:46.391Z,2.00
2022-09-20T01:54:56.223Z,2.50
2022-09-20T01:55:06.154Z,2.40
2022-09-20T01:55:16.227Z,2.20
2022-09-20T01:55:26.143Z,1.60
2022-09-20T01:55:36.296Z,1.10
2022-09-20T01:55:46.221Z,1.50
2022-09-20T01:55:56.127Z,2.00
2022-09-20T01:56:06.376Z,1.90
2022-09-20T01:56:16.338Z,1.30
2022-09-20T01:56:26.166Z,0.70
2022-09-20T01:56:36.336Z,1.00
2022-09-20T01:56:46.281Z,1.30
2022-09-20T01:56:56.350Z,1.90
2022-09-20T01:57:06.236Z,1.70
2022-09-20T01:57:16.277Z,1.80
2022-09-20T01:57:27.505Z,1.20
2022-09-20T01:57:36.418Z,1.30
2022-09-20T01:57:46.331Z,1.60
2022-09-20T01:57:56.253Z,2.00
2022-09-20T01:58:06.143Z,2.00
2022-09-20T01:58:16.300Z,2.00
2022-09-20T01:58:26.393Z,1.70
2022-09-20T01:58:36.244Z,2.40
2022-09-20T01:58:50.483Z,2.10
2022-09-20T01:59:19.418Z,2.50
2022-09-20T01:59:23.087Z,1.40
2022-09-20T01:59:24.233Z,1.30
2022-09-20T01:59:26.840Z,1.40
2022-09-20T01:59:36.277Z,1.50
2022-09-20T01:59:46.398Z,2.20
2022-09-20T01:59:56.141Z,2.30
2022-09-20T02:00:06.346Z,3.10
2022-09-20T02:00:16.231Z,2.90
2022-09-20T02:00:26.162Z,2.60
2022-09-20T02:00:36.181Z,2.70
2022-09-20T02:00:46.228Z,2.20
2022-09-20T02:00:56.326Z,1.70
2022-09-20T02:01:06.398Z,1.00
2022-09-20T02:01:16.447Z,1.30
2022-09-20T02:01:26.153Z,1.30
2022-09-20T02:01:36.422Z,1.80
2022-09-20T02:01:46.191Z,1.50
2022-09-20T02:01:56.284Z,1.90
2022-09-20T02:02:06.323Z,2.10
2022-09-20T02:02:16.356Z,2.70
2022-09-20T02:02:26.481Z,2.40
2022-09-20T02:02:36.314Z,2.00
2022-09-20T02:02:46.325Z,1.30
2022-09-20T02:02:56.386Z,1.70
2022-09-20T02:03:06.265Z,2.00
2022-09-20T02:03:16.161Z,1.90
2022-09-20T02:03:26.351Z,2.50
2022-09-20T02:03:36.404Z,2.00
2022-09-20T02:03:46.369Z,2.60
2022-09-20T02:03:56.642Z,2.30
2022-09-20T02:04:08.738Z,2.90
2022-09-20T02:04:16.420Z,2.60
2022-09-20T02:04:26.284Z,3.10
2022-09-20T02:04:36.169Z,3.10
2022-09-20T02:04:46.189Z,2.20
2022-09-20T02:04:56.247Z,1.40
2022-09-20T02:05:06.215Z,1.20
2022-09-20T02:05:16.327Z,2.00
2022-09-20T02:05:26.261Z,2.20
2022-09-20T02:05:36.358Z,2.00
2022-09-20T02:05:46.419Z,1.20
2022-09-20T02:05:56.376Z,1.40
2022-09-20T02:06:06.396Z,2.20
2022-09-20T02:06:20.682Z,2.30
2022-09-20T02:06:26.189Z,2.40
2022-09-20T02:06:36.301Z,1.70
2022-09-20T02:06:46.272Z,1.50
2022-09-20T02:06:56.327Z,1.00
2022-09-20T02:07:06.213Z,1.10
2022-09-20T02:07:16.211Z,1.00
2022-09-20T02:07:26.301Z,1.00
2022-09-20T02:07:36.364Z,1.30
2022-09-20T02:07:46.264Z,1.70
2022-09-20T02:07:56.181Z,1.80
2022-09-20T02:08:06.149Z,1.90
2022-09-20T02:08:16.162Z,2.20
2022-09-20T02:08:26.424Z,2.50
2022-09-20T02:08:36.386Z,2.00
2022-09-20T02:08:46.376Z,2.00
2022-09-20T02:08:56.239Z,2.70
2022-09-20T02:09:06.272Z,2.70
2022-09-20T02:09:16.359Z,2.10
2022-09-20T02:09:26.158Z,1.40
2022-09-20T02:09:37.114Z,1.80
2022-09-20T02:09:46.370Z,1.90
2022-09-20T02:09:56.239Z,3.00
2022-09-20T02:10:06.326Z,2.60
2022-09-20T02:10:16.306Z,2.40
2022-09-20T02:10:26.356Z,1.40
2022-09-20T02:10:36.293Z,2.30
2022-09-20T02:10:46.424Z,2.50
2022-09-20T02:10:56.355Z,2.60
2022-09-20T02:11:06.224Z,1.90
2022-09-20T02:11:16.397Z,2.10
2022-09-20T02:11:26.204Z,2.60
2022-09-20T02:11:36.338Z,2.20
2022-09-20T02:11:46.224Z,2.10
2022-09-20T02:11:58.950Z,1.20
2022-09-20T02:12:06.180Z,1.20
2022-09-20T02:12:16.235Z,1.00
2022-09-20T02:12:29.419Z,0.80
2022-09-20T02:12:36.366Z,1.30
2022-09-20T02:12:46.296Z,1.70
2022-09-20T02:12:56.237Z,2.60
2022-09-20T02:13:06.270Z,2.70